Time;durP1;ratioP1;P1;durP2;ratioP2;P2;SDS_P1;SDS_P2;PMS_P1;PMS_P2;Temp;Humidity;BMP_temperature;BMP_pressure;BME280_temperature;BME280_humidity;BME280_pressure;Samples;Min_cycle;Max_cycle;Signal;HPM_P1;HPM_P2
2021/10/23 00:02:30;;;;;;;8.07;1.63;;;;;;;;;;10293123;28;20128;-60
2021/10/23 00:07:27;;;;;;;4.60;1.90;;;;;;;;;;10287526;28;20041;-60
2021/10/23 00:12:25;;;;;;;4.70;1.50;;;;;;;;;;10304401;28;20141;-60
2021/10/23 00:17:23;;;;;;;2.73;1.00;;;;;;;;;;10306075;28;20037;-61
2021/10/23 00:22:20;;;;;;;7.13;1.10;;;;;;;;;;10301280;28;20467;-59
2021/10/23 00:27:18;;;;;;;5.33;1.53;;;;;;;;;;10295650;28;20121;-57
2021/10/23 00:32:15;;;;;;;6.00;1.97;;;;;;;;;;10275503;28;20041;-57
2021/10/23 00:37:13;;;;;;;10.60;1.77;;;;;;;;;;10295094;28;20435;-61
2021/10/23 00:42:10;;;;;;;7.27;1.30;;;;;;;;;;10300355;28;20041;-59
2021/10/23 00:47:13;;;;;;;5.37;1.13;;;;;;;;;;10300530;28;20519;-60
2021/10/23 00:52:11;;;;;;;2.05;0.43;;;;;;;;;;10302471;28;20402;-61
2021/10/23 00:57:09;;;;;;;8.15;1.35;;;;;;;;;;10301635;28;20045;-61
2021/10/23 01:02:06;;;;;;;1.70;0.60;;;;;;;;;;10305628;28;20087;-61
2021/10/23 01:07:04;;;;;;;10.73;1.33;;;;;;;;;;10308294;28;20045;-59
2021/10/23 01:12:04;;;;;;;2.47;0.90;;;;;;;;;;10289931;28;20045;-60
2021/10/23 01:17:02;;;;;;;10.75;1.42;;;;;;;;;;10303481;28;20040;-60
2021/10/23 01:22:00;;;;;;;8.95;1.85;;;;;;;;;;10292669;28;20132;-61
2021/10/23 01:26:58;;;;;;;;;;;;;;;;;;10298554;28;20047;-61
2021/10/23 01:31:55;;;;;;;1.10;0.50;;;;;;;;;;10286762;28;19917;-60
2021/10/23 01:36:58;;;;;;;3.10;1.30;;;;;;;;;;10260140;28;20056;-57
2021/10/23 01:41:56;;;;;;;4.85;0.65;;;;;;;;;;10298093;28;20052;-63
2021/10/23 01:46:53;;;;;;;6.33;1.23;;;;;;;;;;10282640;28;20034;-61
2021/10/23 01:51:51;;;;;;;3.20;1.03;;;;;;;;;;10301148;28;20406;-59
2021/10/23 01:56:48;;;;;;;3.90;0.67;;;;;;;;;;10296849;28;20033;-56
2021/10/23 02:01:46;;;;;;;2.40;1.23;;;;;;;;;;10319265;28;20513;-61
2021/10/23 02:06:43;;;;;;;10.13;1.07;;;;;;;;;;10288408;28;20073;-58
2021/10/23 02:11:40;;;;;;;5.80;1.43;;;;;;;;;;10290400;28;20038;-55
2021/10/23 02:16:38;;;;;;;7.50;1.20;;;;;;;;;;10305599;28;20094;-58
2021/10/23 02:21:35;;;;;;;1.60;0.63;;;;;;;;;;10283670;28;20411;-58
2021/10/23 02:26:33;;;;;;;1.83;0.23;;;;;;;;;;10298668;28;20029;-60
2021/10/23 02:31:30;;;;;;;6.23;0.60;;;;;;;;;;10276415;28;20117;-57
2021/10/23 02:36:28;;;;;;;11.37;1.10;;;;;;;;;;10295523;28;20292;-61
2021/10/23 02:41:26;;;;;;;9.50;1.93;;;;;;;;;;10283783;28;20087;-59
2021/10/23 02:46:23;;;;;;;1.60;0.60;;;;;;;;;;10320295;28;20587;-57
2021/10/23 02:51:21;;;;;;;0.40;0.40;;;;;;;;;;10289837;28;20040;-56
2021/10/23 02:56:18;;;;;;;3.60;0.63;;;;;;;;;;10313282;28;20037;-57
2021/10/23 03:01:16;;;;;;;1.30;0.90;;;;;;;;;;10264182;28;20068;-57
2021/10/23 03:06:17;;;;;;;5.53;0.97;;;;;;;;;;10297825;28;20049;-61
2021/10/23 03:11:14;;;;;;;5.47;0.85;;;;;;;;;;10305622;28;20122;-60
2021/10/23 03:16:12;;;;;;;4.23;0.90;;;;;;;;;;10302998;28;20065;-61
2021/10/23 03:21:09;;;;;;;4.03;0.83;;;;;;;;;;10298090;28;20116;-60
2021/10/23 03:26:07;;;;;;;6.97;1.23;;;;;;;;;;10283035;28;20037;-60
2021/10/23 03:31:04;;;;;;;6.57;1.77;;;;;;;;;;10301156;28;20034;-58
2021/10/23 03:36:01;;;;;;;1.23;0.43;;;;;;;;;;10323091;28;20036;-60
2021/10/23 03:40:59;;;;;;;5.27;0.80;;;;;;;;;;10290975;28;20512;-57
2021/10/23 03:45:56;;;;;;;5.10;0.83;;;;;;;;;;10265891;28;20041;-56
2021/10/23 03:50:54;;;;;;;4.27;1.03;;;;;;;;;;10288611;28;20044;-59
2021/10/23 03:55:51;;;;;;;5.77;1.23;;;;;;;;;;10301635;28;20068;-58
2021/10/23 04:00:48;;;;;;;4.20;0.87;;;;;;;;;;10279832;28;20452;-57
2021/10/23 04:05:46;;;;;;;0.63;0.33;;;;;;;;;;10286369;28;20076;-61
2021/10/23 04:10:43;;;;;;;6.60;0.97;;;;;;;;;;10311670;28;20029;-60
2021/10/23 04:15:40;;;;;;;3.60;0.70;;;;;;;;;;10289276;28;20091;-58
2021/10/23 04:20:38;;;;;;;4.53;0.40;;;;;;;;;;10300621;28;20034;-58
2021/10/23 04:25:35;;;;;;;4.43;0.47;;;;;;;;;;10317682;28;20113;-59
2021/10/23 04:30:33;;;;;;;4.40;0.90;;;;;;;;;;10302543;28;20125;-57
2021/10/23 04:35:30;;;;;;;5.23;1.67;;;;;;;;;;10288988;28;20029;-59
2021/10/23 04:40:27;;;;;;;0.30;0.30;;;;;;;;;;10296336;28;20483;-59
2021/10/23 04:45:25;;;;;;;5.93;0.70;;;;;;;;;;10293582;28;20026;-59
2021/10/23 04:50:22;;;;;;;14.07;1.30;;;;;;;;;;10297265;28;20037;-55
2021/10/23 04:55:20;;;;;;;3.27;0.73;;;;;;;;;;10293940;28;20026;-60
2021/10/23 05:00:17;;;;;;;5.43;0.77;;;;;;;;;;10283087;28;20049;-59
2021/10/23 05:05:15;;;;;;;7.03;0.80;;;;;;;;;;10321462;28;20029;-58
2021/10/23 05:10:13;;;;;;;0.97;0.57;;;;;;;;;;10304123;28;20544;-60
2021/10/23 05:15:11;;;;;;;2.53;0.63;;;;;;;;;;10316589;28;20032;-58
2021/10/23 05:20:08;;;;;;;0.53;0.53;;;;;;;;;;10305621;28;20029;-60
2021/10/23 05:25:06;;;;;;;3.17;0.43;;;;;;;;;;10284353;28;20506;-59
2021/10/23 05:30:04;;;;;;;4.07;0.75;;;;;;;;;;10295837;28;20033;-59
2021/10/23 05:35:02;;;;;;;2.60;0.87;;;;;;;;;;10314761;28;20042;-62
2021/10/23 05:39:59;;;;;;;0.40;0.40;;;;;;;;;;10301753;28;20037;-58
2021/10/23 05:44:57;;;;;;;4.60;0.30;;;;;;;;;;10302754;28;20068;-60
2021/10/23 05:49:54;;;;;;;2.40;0.60;;;;;;;;;;10276342;28;20180;-65
2021/10/23 05:54:52;;;;;;;3.25;0.70;;;;;;;;;;10290400;28;20039;-61
2021/10/23 05:59:50;;;;;;;3.87;1.10;;;;;;;;;;10295166;28;20048;-61
2021/10/23 06:04:48;;;;;;;7.30;0.80;;;;;;;;;;10297395;28;20628;-61
2021/10/23 06:09:46;;;;;;;2.88;1.00;;;;;;;;;;10287781;28;20100;-62
2021/10/23 06:14:43;;;;;;;10.30;1.35;;;;;;;;;;10284989;28;20063;-61
2021/10/23 06:19:41;;;;;;;3.77;1.37;;;;;;;;;;10292389;28;20044;-61
2021/10/23 06:24:38;;;;;;;3.60;0.50;;;;;;;;;;10278459;28;20045;-61
2021/10/23 06:29:35;;;;;;;3.37;0.90;;;;;;;;;;10266527;28;20469;-61
2021/10/23 06:34:33;;;;;;;1.33;0.50;;;;;;;;;;10293195;28;20033;-60
2021/10/23 06:39:30;;;;;;;5.50;0.70;;;;;;;;;;10293188;28;20120;-59
2021/10/23 06:44:28;;;;;;;1.13;0.70;;;;;;;;;;10287300;28;20607;-63
2021/10/23 06:49:25;;;;;;;2.13;0.83;;;;;;;;;;10281360;28;20092;-63
2021/10/23 06:54:23;;;;;;;10.60;1.37;;;;;;;;;;10298472;28;20509;-62
2021/10/23 06:59:20;;;;;;;4.80;1.10;;;;;;;;;;10286215;28;20558;-61
2021/10/23 07:04:18;;;;;;;8.90;1.20;;;;;;;;;;10274133;28;20510;-61
2021/10/23 07:09:17;;;;;;;5.23;1.60;;;;;;;;;;10271831;28;20579;-61
2021/10/23 07:14:14;;;;;;;4.32;1.33;;;;;;;;;;10290222;28;20609;-60
2021/10/23 07:19:12;;;;;;;3.47;1.23;;;;;;;;;;10281757;28;20478;-62
2021/10/23 07:24:09;;;;;;;6.43;1.20;;;;;;;;;;10298047;28;20136;-62
2021/10/23 07:29:09;;;;;;;4.23;0.97;;;;;;;;;;10296311;28;20038;-61
2021/10/23 07:34:06;;;;;;;8.73;1.10;;;;;;;;;;10296541;28;20041;-60
2021/10/23 07:39:03;;;;;;;4.50;1.70;;;;;;;;;;10292638;28;20046;-62
2021/10/23 07:44:01;;;;;;;4.40;0.90;;;;;;;;;;10303981;28;20102;-62
2021/10/23 07:48:59;;;;;;;9.67;1.23;;;;;;;;;;10292594;28;20037;-60
2021/10/23 07:53:57;;;;;;;6.53;1.00;;;;;;;;;;10309551;28;20037;-61
2021/10/23 07:58:54;;;;;;;4.63;0.60;;;;;;;;;;10304410;28;20041;-62
2021/10/23 08:03:52;;;;;;;3.03;0.90;;;;;;;;;;10298094;28;20041;-61
2021/10/23 08:08:49;;;;;;;2.57;0.60;;;;;;;;;;10296454;28;20041;-59
2021/10/23 08:13:46;;;;;;;2.37;1.07;;;;;;;;;;10310133;28;20045;-61
2021/10/23 08:18:44;;;;;;;11.60;1.13;;;;;;;;;;10292234;28;20144;-60
2021/10/23 08:23:41;;;;;;;3.10;1.00;;;;;;;;;;10303760;28;20079;-61
2021/10/23 08:28:38;;;;;;;5.77;0.97;;;;;;;;;;10295029;28;20041;-63
2021/10/23 08:33:36;;;;;;;7.70;1.10;;;;;;;;;;10313341;28;20405;-61
2021/10/23 08:38:33;;;;;;;4.23;1.03;;;;;;;;;;10292479;28;20231;-61
2021/10/23 08:43:31;;;;;;;2.90;0.87;;;;;;;;;;10294299;28;20041;-63
2021/10/23 08:48:29;;;;;;;2.03;0.70;;;;;;;;;;10280342;28;20090;-61
2021/10/23 08:53:27;;;;;;;;;;;;;;;;;;10281923;28;20513;-60
2021/10/23 08:58:24;;;;;;;6.90;0.88;;;;;;;;;;10286774;28;19921;-62
2021/10/23 09:03:23;;;;;;;3.00;0.50;;;;;;;;;;10300869;28;20136;-59
2021/10/23 09:08:22;;;;;;;;;;;;;;;;;;10297802;28;20034;-58
2021/10/23 09:13:45;;;;;;;5.47;0.70;;;;;;;;;;10288164;28;19921;-60
2021/10/23 09:18:46;;;;;;;6.13;0.85;;;;;;;;;;10289434;28;20040;-60
2021/10/23 09:23:43;;;;;;;3.58;1.00;;;;;;;;;;10278484;28;20407;-61
2021/10/23 09:28:41;;;;;;;2.73;0.83;;;;;;;;;;10281943;28;20041;-61
2021/10/23 09:33:38;;;;;;;2.27;0.87;;;;;;;;;;10290285;28;20041;-61
2021/10/23 09:38:36;;;;;;;3.13;0.80;;;;;;;;;;10272960;28;20377;-58
2021/10/23 09:43:33;;;;;;;2.30;0.70;;;;;;;;;;10273609;28;20052;-62
2021/10/23 09:48:30;;;;;;;2.90;1.00;;;;;;;;;;10287702;28;20040;-60
2021/10/23 09:53:33;;;;;;;4.70;1.10;;;;;;;;;;10277925;28;20042;-61
2021/10/23 09:58:31;;;;;;;6.28;1.05;;;;;;;;;;10280911;28;20100;-61
2021/10/23 10:03:31;;;;;;;2.27;0.87;;;;;;;;;;10278395;28;20037;-62
2021/10/23 10:08:29;;;;;;;8.00;1.05;;;;;;;;;;10276406;28;20029;-61
2021/10/23 10:13:26;;;;;;;3.30;0.90;;;;;;;;;;10290257;28;20451;-61
2021/10/23 10:18:24;;;;;;;2.37;0.60;;;;;;;;;;10271765;28;20038;-59
2021/10/23 10:23:32;;;;;;;4.60;0.90;;;;;;;;;;10281386;28;20152;-61
2021/10/23 10:28:30;;;;;;;4.68;0.98;;;;;;;;;;10270338;28;20053;-62
2021/10/23 10:33:43;;;;;;;0.33;0.33;;;;;;;;;;10262994;28;20030;-59
2021/10/23 10:44:05;;;;;;;4.03;1.40;;;;;;;;;;10259578;28;20053;-65
2021/10/23 10:49:03;;;;;;;5.72;0.68;;;;;;;;;;10286648;28;20072;-62
2021/10/23 10:54:05;;;;;;;4.40;0.90;;;;;;;;;;10282207;28;20073;-61
2021/10/23 10:59:03;;;;;;;3.42;0.63;;;;;;;;;;10285379;28;20042;-60
2021/10/23 11:04:18;;;;;;;2.33;0.80;;;;;;;;;;10293432;28;20041;-61
2021/10/23 11:09:16;;;;;;;3.58;0.50;;;;;;;;;;10293666;28;20587;-63
2021/10/23 11:14:28;;;;;;;3.03;0.83;;;;;;;;;;10273533;28;20106;-61
2021/10/23 11:19:30;;;;;;;3.35;0.90;;;;;;;;;;10295387;28;20033;-61
2021/10/23 11:24:28;;;;;;;2.53;1.05;;;;;;;;;;10279889;28;20069;-60
2021/10/23 11:29:27;;;;;;;2.25;0.30;;;;;;;;;;10285073;28;20044;-61
2021/10/23 11:34:24;;;;;;;;;;;;;;;;;;10273377;28;20041;-66
2021/10/23 11:39:21;;;;;;;1.35;0.60;;;;;;;;;;10307886;28;19917;-63
2021/10/23 11:44:28;;;;;;;3.87;0.50;;;;;;;;;;10293328;28;20485;-63
2021/10/23 11:49:32;;;;;;;2.33;0.68;;;;;;;;;;10296137;28;20245;-62
2021/10/23 11:54:29;;;;;;;2.97;0.80;;;;;;;;;;10298547;28;20037;-61
2021/10/23 11:59:32;;;;;;;3.07;0.77;;;;;;;;;;10290706;28;20034;-61
2021/10/23 12:04:30;;;;;;;3.30;0.60;;;;;;;;;;10287830;28;20061;-61
2021/10/23 12:09:28;;;;;;;3.15;0.30;;;;;;;;;;10278356;28;20034;-62
2021/10/23 12:14:26;;;;;;;0.25;0.22;;;;;;;;;;10293040;28;20147;-62
2021/10/23 12:19:32;;;;;;;2.90;0.40;;;;;;;;;;10281175;28;20067;-62
2021/10/23 12:24:31;;;;;;;0.40;0.40;;;;;;;;;;10297173;28;20516;-60
2021/10/23 12:29:36;;;;;;;0.65;0.43;;;;;;;;;;10280691;28;20033;-61
2021/10/23 12:34:53;;;;;;;0.30;0.30;;;;;;;;;;10305616;28;20041;-63
2021/10/23 12:40:00;;;;;;;1.13;0.52;;;;;;;;;;10293926;28;20405;-64
2021/10/23 12:44:57;;;;;;;3.85;0.60;;;;;;;;;;10296133;28;20041;-60
2021/10/23 12:49:55;;;;;;;0.83;0.37;;;;;;;;;;10289970;28;20507;-65
2021/10/23 12:54:52;;;;;;;1.00;0.37;;;;;;;;;;10288954;28;20022;-62
2021/10/23 12:59:50;;;;;;;2.50;0.60;;;;;;;;;;10284109;28;20025;-64
2021/10/23 13:04:47;;;;;;;0.77;0.47;;;;;;;;;;10284834;28;20025;-61
2021/10/23 13:09:45;;;;;;;3.30;0.40;;;;;;;;;;10291900;28;20025;-61
2021/10/23 13:14:42;;;;;;;0.57;0.43;;;;;;;;;;10299960;28;20021;-61
2021/10/23 13:19:40;;;;;;;5.33;0.37;;;;;;;;;;10266370;28;20502;-61
2021/10/23 13:24:37;;;;;;;0.60;0.23;;;;;;;;;;10270443;28;20187;-61
2021/10/23 13:29:35;;;;;;;0.37;0.23;;;;;;;;;;10283014;28;20029;-62
2021/10/23 13:34:32;;;;;;;3.23;0.67;;;;;;;;;;10296451;28;20017;-56
2021/10/23 13:39:30;;;;;;;1.17;0.73;;;;;;;;;;10294320;28;20037;-62
2021/10/23 13:44:27;;;;;;;1.30;0.97;;;;;;;;;;10295862;28;20022;-61
2021/10/23 13:49:25;;;;;;;2.03;0.57;;;;;;;;;;10298650;28;20029;-61
2021/10/23 13:54:22;;;;;;;2.03;0.23;;;;;;;;;;10298480;28;20044;-62
2021/10/23 13:59:19;;;;;;;0.20;0.20;;;;;;;;;;10290284;28;20021;-59
2021/10/23 14:04:17;;;;;;;1.53;0.20;;;;;;;;;;10290496;28;20106;-61
2021/10/23 14:09:17;;;;;;;1.77;0.77;;;;;;;;;;10277660;28;20037;-60
2021/10/23 14:14:15;;;;;;;4.13;1.37;;;;;;;;;;10304176;28;20391;-60
2021/10/23 14:19:12;;;;;;;0.30;0.30;;;;;;;;;;10296190;28;20080;-60
2021/10/23 14:24:10;;;;;;;2.30;0.83;;;;;;;;;;10279896;28;20654;-63
2021/10/23 14:29:07;;;;;;;0.60;0.30;;;;;;;;;;10294008;28;20033;-62
2021/10/23 14:34:05;;;;;;;4.30;0.90;;;;;;;;;;10291223;28;20033;-62
2021/10/23 14:39:04;;;;;;;5.80;1.83;;;;;;;;;;10291862;28;20038;-62
2021/10/23 14:44:02;;;;;;;3.45;1.02;;;;;;;;;;10275330;28;20168;-62
2021/10/23 14:48:59;;;;;;;1.23;1.00;;;;;;;;;;10307200;28;20151;-61
2021/10/23 14:53:57;;;;;;;2.30;0.50;;;;;;;;;;10265989;28;20055;-59
2021/10/23 14:58:54;;;;;;;3.83;0.50;;;;;;;;;;10287179;28;20522;-62
2021/10/23 15:03:52;;;;;;;4.37;0.57;;;;;;;;;;10240945;28;20040;-63
2021/10/23 15:08:49;;;;;;;1.37;0.63;;;;;;;;;;10275309;28;20095;-60
2021/10/23 15:13:46;;;;;;;1.63;0.90;;;;;;;;;;10224352;28;20655;-61
2021/10/23 15:18:44;;;;;;;1.17;0.60;;;;;;;;;;10276056;28;20034;-61
2021/10/23 15:23:41;;;;;;;1.77;0.73;;;;;;;;;;10280592;28;20038;-62
2021/10/23 15:28:39;;;;;;;2.83;0.73;;;;;;;;;;10287417;28;20033;-60
2021/10/23 15:33:36;;;;;;;1.40;0.40;;;;;;;;;;10255467;28;20037;-59
2021/10/23 15:38:41;;;;;;;3.47;0.50;;;;;;;;;;10296761;28;20032;-61
2021/10/23 15:43:38;;;;;;;0.30;0.30;;;;;;;;;;10296096;28;20113;-62
2021/10/23 15:48:35;;;;;;;2.77;2.13;;;;;;;;;;10282229;28;21324;-61
2021/10/23 15:53:33;;;;;;;4.00;1.80;;;;;;;;;;10296818;28;21186;-62
2021/10/23 15:58:31;;;;;;;4.03;1.90;;;;;;;;;;10275572;28;20044;-62
2021/10/23 16:03:28;;;;;;;26.33;13.87;;;;;;;;;;10301098;28;20029;-61
2021/10/23 16:08:25;;;;;;;12.37;7.83;;;;;;;;;;10289965;28;20048;-62
2021/10/23 16:13:23;;;;;;;23.37;14.80;;;;;;;;;;10277963;28;20041;-63
2021/10/23 16:18:20;;;;;;;30.27;14.70;;;;;;;;;;10284201;28;20442;-63
2021/10/23 16:23:18;;;;;;;88.93;58.13;;;;;;;;;;10299613;28;20045;-61
2021/10/23 16:28:15;;;;;;;92.93;53.73;;;;;;;;;;10301002;28;20124;-62
2021/10/23 16:33:12;;;;;;;36.57;20.67;;;;;;;;;;10309295;28;20068;-64
2021/10/23 16:38:10;;;;;;;11.47;3.63;;;;;;;;;;10292398;28;20070;-62
2021/10/23 16:43:07;;;;;;;3.13;1.10;;;;;;;;;;10299325;28;20025;-62
2021/10/23 16:48:05;;;;;;;7.50;3.20;;;;;;;;;;10292076;28;20499;-62
2021/10/23 16:53:02;;;;;;;6.07;3.17;;;;;;;;;;10285346;28;20056;-63
2021/10/23 16:58:00;;;;;;;4.67;1.83;;;;;;;;;;10285617;28;20612;-63
2021/10/23 17:02:57;;;;;;;7.67;3.13;;;;;;;;;;10279562;28;20111;-61
2021/10/23 17:07:56;;;;;;;7.57;3.50;;;;;;;;;;10287202;28;20033;-63
2021/10/23 17:12:53;;;;;;;7.15;2.95;;;;;;;;;;10285219;28;20037;-62
2021/10/23 17:17:51;;;;;;;8.63;2.87;;;;;;;;;;10281552;28;20077;-63
2021/10/23 17:22:48;;;;;;;5.40;2.80;;;;;;;;;;10285446;28;20411;-63
2021/10/23 17:27:46;;;;;;;5.77;1.80;;;;;;;;;;10282239;28;20222;-62
2021/10/23 17:32:43;;;;;;;5.07;2.05;;;;;;;;;;10295900;28;20042;-62
2021/10/23 17:37:44;;;;;;;6.80;1.63;;;;;;;;;;10296996;28;20041;-62
2021/10/23 17:42:41;;;;;;;1.20;0.90;;;;;;;;;;10277013;28;20042;-62
2021/10/23 17:47:39;;;;;;;1.17;1.07;;;;;;;;;;10287298;28;20037;-63
2021/10/23 17:52:36;;;;;;;2.80;1.07;;;;;;;;;;10288891;28;20639;-61
2021/10/23 17:57:33;;;;;;;3.97;1.30;;;;;;;;;;10304037;28;20514;-63
2021/10/23 18:02:31;;;;;;;3.57;1.93;;;;;;;;;;10272000;28;20024;-62
2021/10/23 18:07:28;;;;;;;4.57;2.27;;;;;;;;;;10277736;28;20387;-62
2021/10/23 18:12:26;;;;;;;3.07;1.33;;;;;;;;;;10279347;28;20095;-65
2021/10/23 18:17:33;;;;;;;3.70;1.97;;;;;;;;;;10286222;28;20021;-63
2021/10/23 18:22:33;;;;;;;2.60;1.63;;;;;;;;;;10290346;28;20029;-62
2021/10/23 18:27:31;;;;;;;6.40;2.10;;;;;;;;;;10283072;28;20076;-63
2021/10/23 18:32:28;;;;;;;8.37;4.07;;;;;;;;;;10292369;28;20302;-62
2021/10/23 18:37:26;;;;;;;10.40;5.03;;;;;;;;;;10287975;28;20033;-64
2021/10/23 18:42:23;;;;;;;13.67;5.33;;;;;;;;;;10292520;28;20026;-60
2021/10/23 18:47:20;;;;;;;9.37;4.53;;;;;;;;;;10264388;28;20025;-61
2021/10/23 18:52:18;;;;;;;5.13;3.87;;;;;;;;;;10282687;28;20043;-60
2021/10/23 18:57:15;;;;;;;8.87;3.27;;;;;;;;;;10299540;28;20041;-57
2021/10/23 19:02:13;;;;;;;4.73;3.03;;;;;;;;;;10285707;28;20121;-62
2021/10/23 19:07:11;;;;;;;6.03;3.77;;;;;;;;;;10292953;28;20080;-62
2021/10/23 19:12:08;;;;;;;9.93;4.70;;;;;;;;;;10292426;28;20311;-62
2021/10/23 19:17:06;;;;;;;6.63;3.83;;;;;;;;;;10269011;28;20029;-63
2021/10/23 19:22:05;;;;;;;7.15;3.90;;;;;;;;;;10283995;28;20030;-61
2021/10/23 19:27:03;;;;;;;9.20;3.47;;;;;;;;;;10291782;28;20045;-62
2021/10/23 19:32:02;;;;;;;9.43;4.43;;;;;;;;;;10288219;28;20070;-61
2021/10/23 19:36:59;;;;;;;10.55;5.47;;;;;;;;;;10287029;28;20037;-59
2021/10/23 19:42:00;;;;;;;6.40;3.83;;;;;;;;;;10298906;28;20495;-65
2021/10/23 19:46:57;;;;;;;5.53;3.40;;;;;;;;;;10293693;28;20045;-59
2021/10/23 19:51:55;;;;;;;4.57;3.50;;;;;;;;;;10287985;28;20030;-59
2021/10/23 19:56:52;;;;;;;5.33;2.60;;;;;;;;;;10290241;28;20037;-59
2021/10/23 20:01:50;;;;;;;8.57;2.43;;;;;;;;;;10306345;28;20034;-59
2021/10/23 20:06:47;;;;;;;2.50;2.10;;;;;;;;;;10273279;28;20296;-58
2021/10/23 20:11:45;;;;;;;4.37;1.90;;;;;;;;;;10277030;28;20052;-61
2021/10/23 20:16:42;;;;;;;6.60;2.00;;;;;;;;;;10298318;28;20124;-60
2021/10/23 20:21:40;;;;;;;3.07;2.13;;;;;;;;;;10298022;28;20396;-61
2021/10/23 20:26:37;;;;;;;9.47;2.70;;;;;;;;;;10295675;28;20376;-60
2021/10/23 20:31:36;;;;;;;3.87;2.03;;;;;;;;;;10272358;28;20041;-62
2021/10/23 20:36:34;;;;;;;12.75;2.33;;;;;;;;;;10293929;28;20036;-60
2021/10/23 20:41:31;;;;;;;5.30;2.50;;;;;;;;;;10299348;28;20037;-61
2021/10/23 20:46:29;;;;;;;6.33;2.80;;;;;;;;;;10280465;28;20040;-62
2021/10/23 20:51:27;;;;;;;6.37;2.77;;;;;;;;;;10265578;28;20072;-61
2021/10/23 20:56:25;;;;;;;10.23;2.90;;;;;;;;;;10288909;28;20060;-62
2021/10/23 21:01:23;;;;;;;9.27;3.30;;;;;;;;;;10298191;28;20044;-57
2021/10/23 21:06:20;;;;;;;10.13;4.50;;;;;;;;;;10290085;28;20045;-61
2021/10/23 21:11:18;;;;;;;11.87;5.27;;;;;;;;;;10278254;28;20034;-59
2021/10/23 21:16:15;;;;;;;6.27;2.47;;;;;;;;;;10294428;28;20509;-60
2021/10/23 21:21:13;;;;;;;2.93;1.37;;;;;;;;;;10290341;28;20068;-61
2021/10/23 21:26:14;;;;;;;2.60;1.70;;;;;;;;;;10284022;28;20029;-61
2021/10/23 21:31:12;;;;;;;5.45;3.10;;;;;;;;;;10268598;28;20133;-62
2021/10/23 21:36:10;;;;;;;5.80;2.70;;;;;;;;;;10298118;28;20546;-60
2021/10/23 21:41:08;;;;;;;5.22;2.88;;;;;;;;;;10294295;28;20034;-60
2021/10/23 21:46:05;;;;;;;11.67;3.90;;;;;;;;;;10296636;28;20529;-59
2021/10/23 21:51:04;;;;;;;7.00;2.97;;;;;;;;;;10290268;28;20452;-58
2021/10/23 21:56:01;;;;;;;11.40;3.78;;;;;;;;;;10286913;28;20044;-60
2021/10/23 22:00:59;;;;;;;3.80;2.17;;;;;;;;;;10293985;28;20037;-60
2021/10/23 22:05:57;;;;;;;8.67;4.07;;;;;;;;;;10270621;28;20049;-61
2021/10/23 22:10:55;;;;;;;7.80;4.45;;;;;;;;;;10286966;28;20707;-58
2021/10/23 22:15:52;;;;;;;10.90;4.03;;;;;;;;;;10295606;28;20437;-60
2021/10/23 22:20:51;;;;;;;14.63;3.93;;;;;;;;;;10280582;28;20945;-61
2021/10/23 22:25:49;;;;;;;;;;;;;;;;;;10281550;28;20396;-61
2021/10/23 22:30:47;;;;;;;8.10;2.88;;;;;;;;;;10279208;28;20290;-61
2021/10/23 22:35:44;;;;;;;12.32;4.70;;;;;;;;;;10280837;28;20029;-62
2021/10/23 22:40:41;;;;;;;4.80;3.03;;;;;;;;;;10289941;28;20450;-61
2021/10/23 22:45:40;;;;;;;6.80;3.60;;;;;;;;;;10285977;28;20041;-61
2021/10/23 22:50:38;;;;;;;3.58;2.03;;;;;;;;;;10284245;28;20033;-60
2021/10/23 22:55:35;;;;;;;3.53;2.10;;;;;;;;;;10286710;28;20040;-61
2021/10/23 23:00:33;;;;;;;7.40;2.53;;;;;;;;;;10295043;28;20042;-60
2021/10/23 23:05:31;;;;;;;5.00;2.60;;;;;;;;;;10288969;28;20037;-60
2021/10/23 23:10:28;;;;;;;7.97;2.67;;;;;;;;;;10291941;28;20063;-61
2021/10/23 23:15:26;;;;;;;2.80;1.57;;;;;;;;;;10285586;28;20043;-59
2021/10/23 23:20:23;;;;;;;8.97;2.13;;;;;;;;;;10288620;28;20041;-61
2021/10/23 23:25:21;;;;;;;3.60;1.23;;;;;;;;;;10296081;28;20425;-61
2021/10/23 23:30:19;;;;;;;9.17;2.73;;;;;;;;;;10292318;28;20053;-61
2021/10/23 23:35:16;;;;;;;3.03;1.85;;;;;;;;;;10285790;28;20129;-58
2021/10/23 23:40:14;;;;;;;4.40;2.07;;;;;;;;;;10270108;28;20116;-60
2021/10/23 23:45:11;;;;;;;5.43;3.00;;;;;;;;;;10302860;28;20033;-60
2021/10/23 23:50:09;;;;;;;7.33;1.77;;;;;;;;;;10286431;28;20030;-61
2021/10/23 23:55:07;;;;;;;10.25;3.00;;;;;;;;;;10293223;28;20612;-61
